sensor_id;sensor_type;location;lat;lon;timestamp;P1;durP1;ratioP1;P2;durP2;ratioP2
62673;SDS011;62269;47.594;17.638;2024-03-06T00:00:03;30.52;;;22.77;;
62673;SDS011;62269;47.594;17.638;2024-03-06T00:01:00;32.80;;;22.80;;
62673;SDS011;62269;47.594;17.638;2024-03-06T00:01:58;31.20;;;21.75;;
62673;SDS011;62269;47.594;17.638;2024-03-06T00:02:55;36.20;;;23.48;;
62673;SDS011;62269;47.594;17.638;2024-03-06T00:03:52;34.15;;;23.27;;
62673;SDS011;62269;47.594;17.638;2024-03-06T00:04:49;31.50;;;22.83;;
62673;SDS011;62269;47.594;17.638;2024-03-06T00:05:47;31.40;;;22.77;;
62673;SDS011;62269;47.594;17.638;2024-03-06T00:06:45;33.03;;;22.42;;
62673;SDS011;62269;47.594;17.638;2024-03-06T00:07:42;36.28;;;24.20;;
62673;SDS011;62269;47.594;17.638;2024-03-06T00:08:39;33.25;;;22.27;;
62673;SDS011;62269;47.594;17.638;2024-03-06T00:09:36;31.17;;;23.73;;
62673;SDS011;62269;47.594;17.638;2024-03-06T00:10:33;36.80;;;25.05;;
62673;SDS011;62269;47.594;17.638;2024-03-06T00:11:31;33.28;;;23.90;;
62673;SDS011;62269;47.594;17.638;2024-03-06T00:12:28;32.28;;;24.00;;
62673;SDS011;62269;47.594;17.638;2024-03-06T00:13:25;32.47;;;24.52;;
62673;SDS011;62269;47.594;17.638;2024-03-06T00:14:22;34.85;;;23.70;;
62673;SDS011;62269;47.594;17.638;2024-03-06T00:15:19;33.25;;;24.12;;
62673;SDS011;62269;47.594;17.638;2024-03-06T00:16:16;31.87;;;22.80;;
62673;SDS011;62269;47.594;17.638;2024-03-06T00:17:15;34.25;;;24.23;;
62673;SDS011;62269;47.594;17.638;2024-03-06T00:18:13;33.45;;;23.58;;
62673;SDS011;62269;47.594;17.638;2024-03-06T00:19:11;34.78;;;23.35;;
62673;SDS011;62269;47.594;17.638;2024-03-06T00:20:08;35.83;;;22.50;;
62673;SDS011;62269;47.594;17.638;2024-03-06T00:21:07;36.90;;;24.23;;
62673;SDS011;62269;47.594;17.638;2024-03-06T00:22:06;34.42;;;24.27;;
62673;SDS011;62269;47.594;17.638;2024-03-06T00:23:03;36.55;;;25.12;;
62673;SDS011;62269;47.594;17.638;2024-03-06T00:24:00;33.58;;;23.40;;
62673;SDS011;62269;47.594;17.638;2024-03-06T00:24:58;35.05;;;24.58;;
62673;SDS011;62269;47.594;17.638;2024-03-06T00:25:55;38.15;;;25.88;;
62673;SDS011;62269;47.594;17.638;2024-03-06T00:26:52;39.28;;;25.35;;
62673;SDS011;62269;47.594;17.638;2024-03-06T00:27:50;37.13;;;25.95;;
62673;SDS011;62269;47.594;17.638;2024-03-06T00:28:47;36.13;;;24.92;;
62673;SDS011;62269;47.594;17.638;2024-03-06T00:29:44;35.78;;;24.58;;
62673;SDS011;62269;47.594;17.638;2024-03-06T00:30:41;37.53;;;24.70;;
62673;SDS011;62269;47.594;17.638;2024-03-06T00:31:42;36.55;;;25.23;;
62673;SDS011;62269;47.594;17.638;2024-03-06T00:32:41;36.85;;;24.48;;
62673;SDS011;62269;47.594;17.638;2024-03-06T00:33:39;36.00;;;23.85;;
62673;SDS011;62269;47.594;17.638;2024-03-06T00:34:37;34.70;;;24.90;;
62673;SDS011;62269;47.594;17.638;2024-03-06T00:35:34;36.17;;;24.00;;
62673;SDS011;62269;47.594;17.638;2024-03-06T00:36:31;35.70;;;25.70;;
62673;SDS011;62269;47.594;17.638;2024-03-06T00:37:29;37.22;;;24.37;;
62673;SDS011;62269;47.594;17.638;2024-03-06T00:38:26;35.08;;;24.33;;
62673;SDS011;62269;47.594;17.638;2024-03-06T00:39:23;40.53;;;27.05;;
62673;SDS011;62269;47.594;17.638;2024-03-06T00:40:21;36.95;;;25.48;;
62673;SDS011;62269;47.594;17.638;2024-03-06T00:41:18;37.47;;;25.83;;
62673;SDS011;62269;47.594;17.638;2024-03-06T00:42:16;36.15;;;25.20;;
62673;SDS011;62269;47.594;17.638;2024-03-06T00:43:13;39.90;;;24.92;;
62673;SDS011;62269;47.594;17.638;2024-03-06T00:44:10;38.53;;;24.52;;
62673;SDS011;62269;47.594;17.638;2024-03-06T00:45:08;35.80;;;26.05;;
62673;SDS011;62269;47.594;17.638;2024-03-06T00:46:05;39.45;;;27.00;;
62673;SDS011;62269;47.594;17.638;2024-03-06T00:47:03;37.53;;;25.50;;
62673;SDS011;62269;47.594;17.638;2024-03-06T00:48:00;36.03;;;24.67;;
62673;SDS011;62269;47.594;17.638;2024-03-06T00:48:57;36.00;;;24.95;;
62673;SDS011;62269;47.594;17.638;2024-03-06T00:49:54;35.90;;;25.37;;
62673;SDS011;62269;47.594;17.638;2024-03-06T00:50:52;38.20;;;26.10;;
62673;SDS011;62269;47.594;17.638;2024-03-06T00:51:49;37.90;;;24.63;;
62673;SDS011;62269;47.594;17.638;2024-03-06T00:52:46;36.72;;;25.92;;
62673;SDS011;62269;47.594;17.638;2024-03-06T00:53:44;34.28;;;24.35;;
62673;SDS011;62269;47.594;17.638;2024-03-06T00:54:41;36.05;;;24.00;;
62673;SDS011;62269;47.594;17.638;2024-03-06T00:55:39;35.17;;;25.15;;
62673;SDS011;62269;47.594;17.638;2024-03-06T00:56:39;35.10;;;25.37;;
62673;SDS011;62269;47.594;17.638;2024-03-06T00:57:36;39.35;;;25.67;;
62673;SDS011;62269;47.594;17.638;2024-03-06T00:58:33;34.13;;;24.00;;
62673;SDS011;62269;47.594;17.638;2024-03-06T00:59:31;34.75;;;24.48;;
62673;SDS011;62269;47.594;17.638;2024-03-06T01:00:29;36.53;;;25.77;;
62673;SDS011;62269;47.594;17.638;2024-03-06T01:01:26;35.22;;;25.10;;
62673;SDS011;62269;47.594;17.638;2024-03-06T01:02:24;40.80;;;26.83;;
62673;SDS011;62269;47.594;17.638;2024-03-06T01:03:22;36.08;;;24.25;;
62673;SDS011;62269;47.594;17.638;2024-03-06T01:04:19;37.30;;;25.27;;
62673;SDS011;62269;47.594;17.638;2024-03-06T01:05:16;39.78;;;25.48;;
62673;SDS011;62269;47.594;17.638;2024-03-06T01:06:14;34.53;;;25.17;;
62673;SDS011;62269;47.594;17.638;2024-03-06T01:07:11;33.45;;;24.42;;
62673;SDS011;62269;47.594;17.638;2024-03-06T01:08:08;38.95;;;26.48;;
62673;SDS011;62269;47.594;17.638;2024-03-06T01:09:05;38.10;;;26.25;;
62673;SDS011;62269;47.594;17.638;2024-03-06T01:10:03;38.92;;;26.33;;
62673;SDS011;62269;47.594;17.638;2024-03-06T01:11:03;28.85;;;20.70;;
62673;SDS011;62269;47.594;17.638;2024-03-06T01:12:01;37.42;;;25.70;;
62673;SDS011;62269;47.594;17.638;2024-03-06T01:12:58;35.08;;;25.50;;
62673;SDS011;62269;47.594;17.638;2024-03-06T01:13:55;41.50;;;27.80;;
62673;SDS011;62269;47.594;17.638;2024-03-06T01:14:52;41.28;;;29.08;;
62673;SDS011;62269;47.594;17.638;2024-03-06T01:15:49;42.53;;;29.15;;
62673;SDS011;62269;47.594;17.638;2024-03-06T01:16:46;42.10;;;28.20;;
62673;SDS011;62269;47.594;17.638;2024-03-06T01:17:44;38.75;;;26.73;;
62673;SDS011;62269;47.594;17.638;2024-03-06T01:18:41;37.97;;;25.48;;
62673;SDS011;62269;47.594;17.638;2024-03-06T01:19:38;38.25;;;27.92;;
62673;SDS011;62269;47.594;17.638;2024-03-06T01:20:35;43.33;;;27.37;;
62673;SDS011;62269;47.594;17.638;2024-03-06T01:21:33;38.53;;;25.60;;
62673;SDS011;62269;47.594;17.638;2024-03-06T01:22:31;39.13;;;27.37;;
62673;SDS011;62269;47.594;17.638;2024-03-06T01:23:28;43.25;;;27.27;;
62673;SDS011;62269;47.594;17.638;2024-03-06T01:24:25;45.33;;;28.20;;
62673;SDS011;62269;47.594;17.638;2024-03-06T01:25:22;43.63;;;29.08;;
62673;SDS011;62269;47.594;17.638;2024-03-06T01:26:19;43.22;;;27.58;;
62673;SDS011;62269;47.594;17.638;2024-03-06T01:27:16;44.80;;;29.95;;
62673;SDS011;62269;47.594;17.638;2024-03-06T01:28:13;40.35;;;28.08;;
62673;SDS011;62269;47.594;17.638;2024-03-06T01:29:11;40.65;;;28.52;;
62673;SDS011;62269;47.594;17.638;2024-03-06T01:30:08;44.20;;;28.70;;
62673;SDS011;62269;47.594;17.638;2024-03-06T01:31:05;38.55;;;28.80;;
62673;SDS011;62269;47.594;17.638;2024-03-06T01:32:03;38.47;;;26.20;;
62673;SDS011;62269;47.594;17.638;2024-03-06T01:33:01;36.72;;;26.00;;
62673;SDS011;62269;47.594;17.638;2024-03-06T01:33:58;39.53;;;26.90;;
62673;SDS011;62269;47.594;17.638;2024-03-06T01:34:55;41.45;;;28.58;;
62673;SDS011;62269;47.594;17.638;2024-03-06T01:35:52;40.10;;;26.92;;
62673;SDS011;62269;47.594;17.638;2024-03-06T01:36:50;45.10;;;29.05;;
62673;SDS011;62269;47.594;17.638;2024-03-06T01:37:47;42.22;;;27.77;;
62673;SDS011;62269;47.594;17.638;2024-03-06T01:38:44;46.00;;;30.50;;
62673;SDS011;62269;47.594;17.638;2024-03-06T01:39:43;43.08;;;28.52;;
62673;SDS011;62269;47.594;17.638;2024-03-06T01:40:44;45.05;;;28.35;;
62673;SDS011;62269;47.594;17.638;2024-03-06T01:41:48;39.30;;;26.80;;
62673;SDS011;62269;47.594;17.638;2024-03-06T01:42:47;44.03;;;28.17;;
62673;SDS011;62269;47.594;17.638;2024-03-06T01:43:48;44.08;;;28.52;;
62673;SDS011;62269;47.594;17.638;2024-03-06T01:44:45;45.03;;;28.62;;
62673;SDS011;62269;47.594;17.638;2024-03-06T01:45:42;43.20;;;28.75;;
62673;SDS011;62269;47.594;17.638;2024-03-06T01:46:39;41.15;;;28.35;;
62673;SDS011;62269;47.594;17.638;2024-03-06T01:47:37;46.28;;;28.67;;
62673;SDS011;62269;47.594;17.638;2024-03-06T01:48:34;45.53;;;31.85;;
62673;SDS011;62269;47.594;17.638;2024-03-06T01:49:31;44.88;;;29.73;;
62673;SDS011;62269;47.594;17.638;2024-03-06T01:50:40;40.03;;;28.42;;
62673;SDS011;62269;47.594;17.638;2024-03-06T01:51:38;46.75;;;29.73;;
62673;SDS011;62269;47.594;17.638;2024-03-06T01:52:35;45.97;;;30.80;;
62673;SDS011;62269;47.594;17.638;2024-03-06T01:53:33;42.90;;;28.67;;
62673;SDS011;62269;47.594;17.638;2024-03-06T01:54:31;45.40;;;29.95;;
62673;SDS011;62269;47.594;17.638;2024-03-06T01:55:28;45.80;;;29.65;;
62673;SDS011;62269;47.594;17.638;2024-03-06T01:56:26;44.03;;;28.02;;
62673;SDS011;62269;47.594;17.638;2024-03-06T01:57:24;46.15;;;30.37;;
62673;SDS011;62269;47.594;17.638;2024-03-06T01:58:21;43.70;;;29.25;;
62673;SDS011;62269;47.594;17.638;2024-03-06T01:59:19;43.70;;;29.42;;
62673;SDS011;62269;47.594;17.638;2024-03-06T02:00:32;44.53;;;29.85;;
62673;SDS011;62269;47.594;17.638;2024-03-06T02:01:31;42.85;;;28.55;;
62673;SDS011;62269;47.594;17.638;2024-03-06T02:02:29;40.80;;;27.02;;
62673;SDS011;62269;47.594;17.638;2024-03-06T02:03:27;42.10;;;29.48;;
62673;SDS011;62269;47.594;17.638;2024-03-06T02:04:24;46.53;;;30.92;;
62673;SDS011;62269;47.594;17.638;2024-03-06T02:05:24;45.00;;;30.40;;
62673;SDS011;62269;47.594;17.638;2024-03-06T02:06:21;44.28;;;28.12;;
62673;SDS011;62269;47.594;17.638;2024-03-06T02:07:19;40.55;;;28.60;;
62673;SDS011;62269;47.594;17.638;2024-03-06T02:08:17;41.00;;;28.08;;
62673;SDS011;62269;47.594;17.638;2024-03-06T02:09:14;41.90;;;27.55;;
62673;SDS011;62269;47.594;17.638;2024-03-06T02:10:12;43.58;;;29.65;;
62673;SDS011;62269;47.594;17.638;2024-03-06T02:11:10;41.42;;;29.15;;
62673;SDS011;62269;47.594;17.638;2024-03-06T02:12:08;43.17;;;29.48;;
62673;SDS011;62269;47.594;17.638;2024-03-06T02:13:05;42.58;;;28.40;;
62673;SDS011;62269;47.594;17.638;2024-03-06T02:14:02;41.30;;;28.00;;
62673;SDS011;62269;47.594;17.638;2024-03-06T02:15:00;39.88;;;28.50;;
62673;SDS011;62269;47.594;17.638;2024-03-06T02:15:59;42.00;;;27.98;;
62673;SDS011;62269;47.594;17.638;2024-03-06T02:16:56;43.92;;;28.77;;
62673;SDS011;62269;47.594;17.638;2024-03-06T02:17:54;42.88;;;27.95;;
62673;SDS011;62269;47.594;17.638;2024-03-06T02:18:51;42.00;;;27.80;;
62673;SDS011;62269;47.594;17.638;2024-03-06T02:20:48;42.13;;;28.35;;
62673;SDS011;62269;47.594;17.638;2024-03-06T02:21:47;40.35;;;27.87;;
62673;SDS011;62269;47.594;17.638;2024-03-06T02:22:44;44.13;;;30.55;;
62673;SDS011;62269;47.594;17.638;2024-03-06T02:23:41;41.72;;;28.05;;
62673;SDS011;62269;47.594;17.638;2024-03-06T02:24:44;41.08;;;28.75;;
62673;SDS011;62269;47.594;17.638;2024-03-06T02:25:44;40.63;;;29.30;;
62673;SDS011;62269;47.594;17.638;2024-03-06T02:26:44;36.15;;;25.10;;
62673;SDS011;62269;47.594;17.638;2024-03-06T02:27:41;42.72;;;29.17;;
62673;SDS011;62269;47.594;17.638;2024-03-06T02:28:38;43.00;;;29.10;;
62673;SDS011;62269;47.594;17.638;2024-03-06T02:29:35;41.03;;;27.30;;
62673;SDS011;62269;47.594;17.638;2024-03-06T02:30:32;44.53;;;27.58;;
62673;SDS011;62269;47.594;17.638;2024-03-06T02:31:34;40.05;;;27.17;;
62673;SDS011;62269;47.594;17.638;2024-03-06T02:32:31;43.05;;;27.67;;
62673;SDS011;62269;47.594;17.638;2024-03-06T02:33:28;41.83;;;28.38;;
62673;SDS011;62269;47.594;17.638;2024-03-06T02:34:26;45.22;;;30.37;;
62673;SDS011;62269;47.594;17.638;2024-03-06T02:35:23;43.45;;;29.30;;
62673;SDS011;62269;47.594;17.638;2024-03-06T02:36:20;44.50;;;29.35;;
62673;SDS011;62269;47.594;17.638;2024-03-06T02:37:18;46.40;;;30.48;;
62673;SDS011;62269;47.594;17.638;2024-03-06T02:38:16;45.15;;;30.10;;
62673;SDS011;62269;47.594;17.638;2024-03-06T02:39:14;46.58;;;31.05;;
62673;SDS011;62269;47.594;17.638;2024-03-06T02:40:11;46.05;;;28.62;;
62673;SDS011;62269;47.594;17.638;2024-03-06T02:41:08;47.00;;;30.15;;
62673;SDS011;62269;47.594;17.638;2024-03-06T02:42:06;43.28;;;29.73;;
62673;SDS011;62269;47.594;17.638;2024-03-06T02:43:04;48.58;;;31.10;;
62673;SDS011;62269;47.594;17.638;2024-03-06T02:44:01;45.28;;;30.35;;
62673;SDS011;62269;47.594;17.638;2024-03-06T02:44:59;44.72;;;30.02;;
62673;SDS011;62269;47.594;17.638;2024-03-06T02:45:56;41.72;;;29.75;;
62673;SDS011;62269;47.594;17.638;2024-03-06T02:46:54;43.22;;;30.05;;
62673;SDS011;62269;47.594;17.638;2024-03-06T02:47:51;44.30;;;30.33;;
62673;SDS011;62269;47.594;17.638;2024-03-06T02:48:48;40.17;;;28.35;;
62673;SDS011;62269;47.594;17.638;2024-03-06T02:49:45;44.90;;;29.27;;
62673;SDS011;62269;47.594;17.638;2024-03-06T02:50:42;46.53;;;30.80;;
62673;SDS011;62269;47.594;17.638;2024-03-06T02:51:39;49.97;;;30.15;;
62673;SDS011;62269;47.594;17.638;2024-03-06T02:52:36;49.00;;;31.10;;
62673;SDS011;62269;47.594;17.638;2024-03-06T02:53:34;43.60;;;28.20;;
62673;SDS011;62269;47.594;17.638;2024-03-06T02:54:31;43.30;;;29.23;;
62673;SDS011;62269;47.594;17.638;2024-03-06T02:55:28;47.45;;;29.63;;
62673;SDS011;62269;47.594;17.638;2024-03-06T02:56:25;39.47;;;28.05;;
62673;SDS011;62269;47.594;17.638;2024-03-06T02:57:22;44.58;;;30.20;;
62673;SDS011;62269;47.594;17.638;2024-03-06T02:58:19;45.03;;;29.67;;
62673;SDS011;62269;47.594;17.638;2024-03-06T02:59:16;48.65;;;30.12;;
62673;SDS011;62269;47.594;17.638;2024-03-06T03:00:13;43.40;;;30.17;;
62673;SDS011;62269;47.594;17.638;2024-03-06T03:01:15;46.42;;;29.20;;
62673;SDS011;62269;47.594;17.638;2024-03-06T03:02:12;45.80;;;29.73;;
62673;SDS011;62269;47.594;17.638;2024-03-06T03:03:10;45.22;;;30.40;;
62673;SDS011;62269;47.594;17.638;2024-03-06T03:05:08;41.83;;;28.85;;
62673;SDS011;62269;47.594;17.638;2024-03-06T03:06:05;47.60;;;30.92;;
62673;SDS011;62269;47.594;17.638;2024-03-06T03:07:03;44.17;;;29.10;;
62673;SDS011;62269;47.594;17.638;2024-03-06T03:08:00;41.03;;;27.80;;
62673;SDS011;62269;47.594;17.638;2024-03-06T03:08:57;42.28;;;28.70;;
62673;SDS011;62269;47.594;17.638;2024-03-06T03:09:54;42.58;;;28.12;;
62673;SDS011;62269;47.594;17.638;2024-03-06T03:10:51;42.42;;;28.87;;
62673;SDS011;62269;47.594;17.638;2024-03-06T03:11:49;43.28;;;28.75;;
62673;SDS011;62269;47.594;17.638;2024-03-06T03:12:46;48.90;;;29.52;;
62673;SDS011;62269;47.594;17.638;2024-03-06T03:13:43;42.30;;;29.10;;
62673;SDS011;62269;47.594;17.638;2024-03-06T03:14:40;41.75;;;28.60;;
62673;SDS011;62269;47.594;17.638;2024-03-06T03:15:38;45.95;;;30.45;;
62673;SDS011;62269;47.594;17.638;2024-03-06T03:16:37;41.65;;;29.00;;
62673;SDS011;62269;47.594;17.638;2024-03-06T03:17:35;42.78;;;28.15;;
62673;SDS011;62269;47.594;17.638;2024-03-06T03:18:32;41.75;;;28.55;;
62673;SDS011;62269;47.594;17.638;2024-03-06T03:19:29;46.00;;;28.75;;
62673;SDS011;62269;47.594;17.638;2024-03-06T03:20:26;46.05;;;30.00;;
62673;SDS011;62269;47.594;17.638;2024-03-06T03:21:24;43.20;;;30.12;;
62673;SDS011;62269;47.594;17.638;2024-03-06T03:22:21;44.72;;;28.27;;
62673;SDS011;62269;47.594;17.638;2024-03-06T03:23:18;42.78;;;28.08;;
62673;SDS011;62269;47.594;17.638;2024-03-06T03:24:19;43.87;;;27.90;;
62673;SDS011;62269;47.594;17.638;2024-03-06T03:25:17;42.00;;;29.08;;
62673;SDS011;62269;47.594;17.638;2024-03-06T03:26:14;40.03;;;29.33;;
62673;SDS011;62269;47.594;17.638;2024-03-06T03:27:12;43.85;;;29.33;;
62673;SDS011;62269;47.594;17.638;2024-03-06T03:28:10;47.90;;;30.35;;
62673;SDS011;62269;47.594;17.638;2024-03-06T03:29:07;43.40;;;28.08;;
62673;SDS011;62269;47.594;17.638;2024-03-06T03:30:05;42.08;;;27.75;;
62673;SDS011;62269;47.594;17.638;2024-03-06T03:31:08;41.70;;;27.30;;
62673;SDS011;62269;47.594;17.638;2024-03-06T03:32:05;43.35;;;29.10;;
62673;SDS011;62269;47.594;17.638;2024-03-06T03:33:02;41.85;;;28.35;;
62673;SDS011;62269;47.594;17.638;2024-03-06T03:34:00;45.20;;;28.80;;
62673;SDS011;62269;47.594;17.638;2024-03-06T03:34:57;42.58;;;28.30;;
62673;SDS011;62269;47.594;17.638;2024-03-06T03:35:54;41.47;;;28.48;;
62673;SDS011;62269;47.594;17.638;2024-03-06T03:36:51;44.85;;;31.23;;
62673;SDS011;62269;47.594;17.638;2024-03-06T03:37:48;42.10;;;28.48;;
62673;SDS011;62269;47.594;17.638;2024-03-06T03:38:48;41.15;;;28.25;;
62673;SDS011;62269;47.594;17.638;2024-03-06T03:39:45;43.03;;;27.87;;
62673;SDS011;62269;47.594;17.638;2024-03-06T03:40:42;47.80;;;29.87;;
62673;SDS011;62269;47.594;17.638;2024-03-06T03:41:42;41.00;;;28.70;;
62673;SDS011;62269;47.594;17.638;2024-03-06T03:42:40;41.25;;;28.08;;
62673;SDS011;62269;47.594;17.638;2024-03-06T03:43:38;43.38;;;28.67;;
62673;SDS011;62269;47.594;17.638;2024-03-06T03:44:36;41.63;;;28.35;;
62673;SDS011;62269;47.594;17.638;2024-03-06T03:45:34;45.88;;;28.50;;
62673;SDS011;62269;47.594;17.638;2024-03-06T03:46:32;39.47;;;27.55;;
62673;SDS011;62269;47.594;17.638;2024-03-06T03:47:29;40.25;;;27.08;;
62673;SDS011;62269;47.594;17.638;2024-03-06T03:48:27;43.78;;;28.70;;
62673;SDS011;62269;47.594;17.638;2024-03-06T03:49:25;42.13;;;28.67;;
62673;SDS011;62269;47.594;17.638;2024-03-06T03:50:22;45.63;;;28.38;;
62673;SDS011;62269;47.594;17.638;2024-03-06T03:51:19;42.15;;;28.23;;
62673;SDS011;62269;47.594;17.638;2024-03-06T03:52:17;42.45;;;27.30;;
62673;SDS011;62269;47.594;17.638;2024-03-06T03:53:14;41.90;;;27.92;;
62673;SDS011;62269;47.594;17.638;2024-03-06T03:54:12;37.67;;;27.50;;
62673;SDS011;62269;47.594;17.638;2024-03-06T03:55:09;41.42;;;29.00;;
62673;SDS011;62269;47.594;17.638;2024-03-06T03:56:07;41.60;;;28.55;;
62673;SDS011;62269;47.594;17.638;2024-03-06T03:57:05;38.25;;;27.85;;
62673;SDS011;62269;47.594;17.638;2024-03-06T03:58:03;46.28;;;30.52;;
62673;SDS011;62269;47.594;17.638;2024-03-06T03:59:02;43.15;;;27.37;;
62673;SDS011;62269;47.594;17.638;2024-03-06T03:59:59;45.55;;;28.08;;
62673;SDS011;62269;47.594;17.638;2024-03-06T04:00:56;43.03;;;28.65;;
62673;SDS011;62269;47.594;17.638;2024-03-06T04:01:54;41.92;;;28.83;;
62673;SDS011;62269;47.594;17.638;2024-03-06T04:02:53;46.73;;;28.97;;
62673;SDS011;62269;47.594;17.638;2024-03-06T04:03:51;41.85;;;27.92;;
62673;SDS011;62269;47.594;17.638;2024-03-06T04:04:48;45.58;;;28.15;;
62673;SDS011;62269;47.594;17.638;2024-03-06T04:05:46;42.92;;;27.52;;
62673;SDS011;62269;47.594;17.638;2024-03-06T04:06:43;44.83;;;28.48;;
62673;SDS011;62269;47.594;17.638;2024-03-06T04:07:42;44.05;;;28.45;;
62673;SDS011;62269;47.594;17.638;2024-03-06T04:08:39;48.65;;;27.98;;
62673;SDS011;62269;47.594;17.638;2024-03-06T04:09:36;41.03;;;28.00;;
62673;SDS011;62269;47.594;17.638;2024-03-06T04:10:34;43.97;;;27.60;;
62673;SDS011;62269;47.594;17.638;2024-03-06T04:11:31;43.10;;;27.60;;
62673;SDS011;62269;47.594;17.638;2024-03-06T04:12:33;43.92;;;27.65;;
62673;SDS011;62269;47.594;17.638;2024-03-06T04:13:30;37.92;;;27.20;;
62673;SDS011;62269;47.594;17.638;2024-03-06T04:14:27;40.63;;;26.65;;
62673;SDS011;62269;47.594;17.638;2024-03-06T04:15:24;40.08;;;26.55;;
62673;SDS011;62269;47.594;17.638;2024-03-06T04:16:21;45.12;;;27.98;;
62673;SDS011;62269;47.594;17.638;2024-03-06T04:17:19;46.88;;;29.02;;
62673;SDS011;62269;47.594;17.638;2024-03-06T04:18:16;46.03;;;28.08;;
62673;SDS011;62269;47.594;17.638;2024-03-06T04:19:13;42.05;;;28.52;;
62673;SDS011;62269;47.594;17.638;2024-03-06T04:20:11;42.95;;;27.70;;
62673;SDS011;62269;47.594;17.638;2024-03-06T04:21:08;40.97;;;28.70;;
62673;SDS011;62269;47.594;17.638;2024-03-06T04:22:07;42.05;;;27.00;;
62673;SDS011;62269;47.594;17.638;2024-03-06T04:23:04;40.60;;;27.10;;
62673;SDS011;62269;47.594;17.638;2024-03-06T04:24:01;39.63;;;27.23;;
62673;SDS011;62269;47.594;17.638;2024-03-06T04:24:58;42.13;;;28.33;;
62673;SDS011;62269;47.594;17.638;2024-03-06T04:25:55;45.58;;;28.98;;
62673;SDS011;62269;47.594;17.638;2024-03-06T04:26:52;40.88;;;27.70;;
62673;SDS011;62269;47.594;17.638;2024-03-06T04:27:49;43.78;;;28.60;;
62673;SDS011;62269;47.594;17.638;2024-03-06T04:28:46;41.75;;;27.92;;
62673;SDS011;62269;47.594;17.638;2024-03-06T04:29:44;42.35;;;28.12;;
62673;SDS011;62269;47.594;17.638;2024-03-06T04:30:41;44.33;;;28.85;;
62673;SDS011;62269;47.594;17.638;2024-03-06T04:31:38;40.95;;;27.45;;
62673;SDS011;62269;47.594;17.638;2024-03-06T04:32:36;40.45;;;27.45;;
62673;SDS011;62269;47.594;17.638;2024-03-06T04:33:33;42.97;;;28.38;;
62673;SDS011;62269;47.594;17.638;2024-03-06T04:34:31;40.50;;;26.05;;
62673;SDS011;62269;47.594;17.638;2024-03-06T04:35:28;42.58;;;29.70;;
62673;SDS011;62269;47.594;17.638;2024-03-06T04:36:25;44.55;;;29.80;;
62673;SDS011;62269;47.594;17.638;2024-03-06T04:37:22;46.15;;;28.75;;
62673;SDS011;62269;47.594;17.638;2024-03-06T04:38:19;40.60;;;27.58;;
62673;SDS011;62269;47.594;17.638;2024-03-06T04:39:16;43.70;;;28.70;;
62673;SDS011;62269;47.594;17.638;2024-03-06T04:40:13;42.95;;;29.45;;
62673;SDS011;62269;47.594;17.638;2024-03-06T04:42:11;41.85;;;27.85;;
62673;SDS011;62269;47.594;17.638;2024-03-06T04:43:09;39.85;;;26.77;;
62673;SDS011;62269;47.594;17.638;2024-03-06T04:44:06;43.47;;;27.62;;
62673;SDS011;62269;47.594;17.638;2024-03-06T04:45:04;42.45;;;28.02;;
62673;SDS011;62269;47.594;17.638;2024-03-06T04:46:14;41.92;;;27.37;;
62673;SDS011;62269;47.594;17.638;2024-03-06T04:47:11;41.70;;;27.17;;
62673;SDS011;62269;47.594;17.638;2024-03-06T04:48:08;45.50;;;28.98;;
62673;SDS011;62269;47.594;17.638;2024-03-06T04:49:05;39.78;;;27.77;;
62673;SDS011;62269;47.594;17.638;2024-03-06T04:50:02;44.10;;;28.30;;
62673;SDS011;62269;47.594;17.638;2024-03-06T04:51:00;45.35;;;29.77;;
62673;SDS011;62269;47.594;17.638;2024-03-06T04:51:57;40.25;;;27.55;;
62673;SDS011;62269;47.594;17.638;2024-03-06T04:52:54;41.35;;;27.13;;
62673;SDS011;62269;47.594;17.638;2024-03-06T04:53:53;44.13;;;28.62;;
62673;SDS011;62269;47.594;17.638;2024-03-06T04:54:50;39.42;;;27.67;;
62673;SDS011;62269;47.594;17.638;2024-03-06T04:55:47;42.67;;;29.35;;
62673;SDS011;62269;47.594;17.638;2024-03-06T04:56:44;44.08;;;29.77;;
62673;SDS011;62269;47.594;17.638;2024-03-06T04:57:43;41.33;;;27.48;;
62673;SDS011;62269;47.594;17.638;2024-03-06T04:58:45;46.25;;;27.55;;
62673;SDS011;62269;47.594;17.638;2024-03-06T04:59:42;50.20;;;28.48;;
62673;SDS011;62269;47.594;17.638;2024-03-06T05:00:39;43.92;;;26.73;;
62673;SDS011;62269;47.594;17.638;2024-03-06T05:01:36;43.33;;;27.27;;
62673;SDS011;62269;47.594;17.638;2024-03-06T05:02:34;44.45;;;29.00;;
62673;SDS011;62269;47.594;17.638;2024-03-06T05:03:49;39.97;;;25.65;;
62673;SDS011;62269;47.594;17.638;2024-03-06T05:05:04;42.08;;;26.17;;
62673;SDS011;62269;47.594;17.638;2024-03-06T05:06:18;37.72;;;25.10;;
62673;SDS011;62269;47.594;17.638;2024-03-06T05:07:32;40.03;;;26.75;;
62673;SDS011;62269;47.594;17.638;2024-03-06T05:08:47;43.05;;;26.50;;
62673;SDS011;62269;47.594;17.638;2024-03-06T05:10:01;45.40;;;28.73;;
62673;SDS011;62269;47.594;17.638;2024-03-06T05:11:15;42.72;;;27.95;;
62673;SDS011;62269;47.594;17.638;2024-03-06T05:12:30;42.17;;;26.25;;
62673;SDS011;62269;47.594;17.638;2024-03-06T05:13:44;39.50;;;26.27;;
62673;SDS011;62269;47.594;17.638;2024-03-06T05:14:58;42.10;;;27.52;;
62673;SDS011;62269;47.594;17.638;2024-03-06T05:16:13;38.55;;;25.10;;
62673;SDS011;62269;47.594;17.638;2024-03-06T05:17:27;36.10;;;23.90;;
62673;SDS011;62269;47.594;17.638;2024-03-06T05:18:41;39.45;;;25.20;;
62673;SDS011;62269;47.594;17.638;2024-03-06T05:19:56;43.60;;;26.83;;
62673;SDS011;62269;47.594;17.638;2024-03-06T05:21:10;39.25;;;26.42;;
62673;SDS011;62269;47.594;17.638;2024-03-06T05:22:25;36.60;;;25.20;;
62673;SDS011;62269;47.594;17.638;2024-03-06T05:23:40;37.25;;;25.48;;
62673;SDS011;62269;47.594;17.638;2024-03-06T05:24:54;37.58;;;26.65;;
62673;SDS011;62269;47.594;17.638;2024-03-06T05:26:08;39.33;;;25.42;;
62673;SDS011;62269;47.594;17.638;2024-03-06T05:27:22;39.40;;;25.20;;
62673;SDS011;62269;47.594;17.638;2024-03-06T05:28:37;39.97;;;26.35;;
62673;SDS011;62269;47.594;17.638;2024-03-06T05:29:51;40.92;;;25.58;;
62673;SDS011;62269;47.594;17.638;2024-03-06T05:31:15;42.22;;;27.45;;
62673;SDS011;62269;47.594;17.638;2024-03-06T05:32:31;39.70;;;25.70;;
62673;SDS011;62269;47.594;17.638;2024-03-06T05:33:46;36.33;;;25.58;;
62673;SDS011;62269;47.594;17.638;2024-03-06T05:35:02;42.60;;;26.35;;
62673;SDS011;62269;47.594;17.638;2024-03-06T05:36:17;38.13;;;25.33;;
62673;SDS011;62269;47.594;17.638;2024-03-06T05:37:31;40.28;;;26.62;;
62673;SDS011;62269;47.594;17.638;2024-03-06T05:38:46;40.28;;;25.60;;
62673;SDS011;62269;47.594;17.638;2024-03-06T05:40:01;39.65;;;27.62;;
62673;SDS011;62269;47.594;17.638;2024-03-06T05:41:18;40.80;;;26.58;;
62673;SDS011;62269;47.594;17.638;2024-03-06T05:42:33;44.95;;;26.50;;
62673;SDS011;62269;47.594;17.638;2024-03-06T05:43:47;41.65;;;26.50;;
62673;SDS011;62269;47.594;17.638;2024-03-06T05:45:01;39.80;;;25.85;;